sensor_id;sensor_type;location;lat;lon;timestamp;temperature;humidity
13462;DHT22;6803;45.264;5.468;2023-02-03T00:00:45;3.80;99.90
13462;DHT22;6803;45.264;5.468;2023-02-03T00:03:16;3.80;99.90
13462;DHT22;6803;45.264;5.468;2023-02-03T00:05:47;3.70;99.90
13462;DHT22;6803;45.264;5.468;2023-02-03T00:08:19;3.70;99.90
13462;DHT22;6803;45.264;5.468;2023-02-03T00:10:50;3.70;99.90
13462;DHT22;6803;45.264;5.468;2023-02-03T00:13:21;3.60;99.90
13462;DHT22;6803;45.264;5.468;2023-02-03T00:15:53;3.50;99.90
13462;DHT22;6803;45.264;5.468;2023-02-03T00:18:23;3.60;99.90
13462;DHT22;6803;45.264;5.468;2023-02-03T00:20:54;3.60;99.90
13462;DHT22;6803;45.264;5.468;2023-02-03T00:23:25;3.70;99.90
13462;DHT22;6803;45.264;5.468;2023-02-03T00:25:57;3.60;99.90
13462;DHT22;6803;45.264;5.468;2023-02-03T00:28:29;3.70;99.90
13462;DHT22;6803;45.264;5.468;2023-02-03T00:31:00;3.90;99.90
13462;DHT22;6803;45.264;5.468;2023-02-03T00:33:31;4.10;99.90
13462;DHT22;6803;45.264;5.468;2023-02-03T00:36:05;4.00;99.90
13462;DHT22;6803;45.264;5.468;2023-02-03T00:38:36;4.20;99.90
13462;DHT22;6803;45.264;5.468;2023-02-03T00:41:07;4.10;99.90
13462;DHT22;6803;45.264;5.468;2023-02-03T00:43:37;4.20;99.90
13462;DHT22;6803;45.264;5.468;2023-02-03T00:46:08;4.20;99.90
13462;DHT22;6803;45.264;5.468;2023-02-03T00:48:39;4.30;99.90
13462;DHT22;6803;45.264;5.468;2023-02-03T00:51:09;4.20;99.90
13462;DHT22;6803;45.264;5.468;2023-02-03T00:53:40;4.00;99.90
13462;DHT22;6803;45.264;5.468;2023-02-03T00:56:10;4.10;99.90
13462;DHT22;6803;45.264;5.468;2023-02-03T00:58:41;4.10;99.90
13462;DHT22;6803;45.264;5.468;2023-02-03T01:01:12;4.00;99.90
13462;DHT22;6803;45.264;5.468;2023-02-03T01:03:43;4.00;99.90
13462;DHT22;6803;45.264;5.468;2023-02-03T01:06:16;3.90;99.90
13462;DHT22;6803;45.264;5.468;2023-02-03T01:08:47;3.90;99.90
13462;DHT22;6803;45.264;5.468;2023-02-03T01:11:20;3.80;99.90
13462;DHT22;6803;45.264;5.468;2023-02-03T01:13:52;3.90;99.90
13462;DHT22;6803;45.264;5.468;2023-02-03T01:16:24;3.90;99.90
13462;DHT22;6803;45.264;5.468;2023-02-03T01:18:56;3.80;99.90
13462;DHT22;6803;45.264;5.468;2023-02-03T01:21:27;3.80;99.90
13462;DHT22;6803;45.264;5.468;2023-02-03T01:23:59;3.80;99.90
13462;DHT22;6803;45.264;5.468;2023-02-03T01:26:29;3.80;99.90
13462;DHT22;6803;45.264;5.468;2023-02-03T01:29:00;3.70;99.90
13462;DHT22;6803;45.264;5.468;2023-02-03T01:31:33;3.60;99.90
13462;DHT22;6803;45.264;5.468;2023-02-03T01:34:05;3.70;99.90
13462;DHT22;6803;45.264;5.468;2023-02-03T01:36:37;3.60;99.90
13462;DHT22;6803;45.264;5.468;2023-02-03T01:39:08;3.60;99.90
13462;DHT22;6803;45.264;5.468;2023-02-03T01:41:40;3.70;99.90
13462;DHT22;6803;45.264;5.468;2023-02-03T01:44:38;3.70;99.90
13462;DHT22;6803;45.264;5.468;2023-02-03T01:47:16;3.60;99.90
13462;DHT22;6803;45.264;5.468;2023-02-03T01:49:51;3.60;99.90
13462;DHT22;6803;45.264;5.468;2023-02-03T01:52:22;3.40;99.90
13462;DHT22;6803;45.264;5.468;2023-02-03T01:54:56;3.50;99.90
13462;DHT22;6803;45.264;5.468;2023-02-03T01:57:30;3.50;99.90
13462;DHT22;6803;45.264;5.468;2023-02-03T02:00:04;3.50;99.90
13462;DHT22;6803;45.264;5.468;2023-02-03T02:02:35;3.60;99.90
13462;DHT22;6803;45.264;5.468;2023-02-03T02:05:10;3.70;99.90
13462;DHT22;6803;45.264;5.468;2023-02-03T02:07:41;3.60;99.90
13462;DHT22;6803;45.264;5.468;2023-02-03T02:10:13;3.60;99.90
13462;DHT22;6803;45.264;5.468;2023-02-03T02:12:44;3.60;99.90
13462;DHT22;6803;45.264;5.468;2023-02-03T02:15:14;3.50;99.90
13462;DHT22;6803;45.264;5.468;2023-02-03T02:21:22;3.30;99.90
13462;DHT22;6803;45.264;5.468;2023-02-03T02:24:09;3.10;99.90
13462;DHT22;6803;45.264;5.468;2023-02-03T02:26:58;3.00;99.90
13462;DHT22;6803;45.264;5.468;2023-02-03T02:30:06;2.80;99.90
13462;DHT22;6803;45.264;5.468;2023-02-03T02:32:45;2.50;99.90
13462;DHT22;6803;45.264;5.468;2023-02-03T02:35:23;2.20;99.90
13462;DHT22;6803;45.264;5.468;2023-02-03T02:37:57;2.00;99.90
13462;DHT22;6803;45.264;5.468;2023-02-03T02:40:30;1.90;99.90
13462;DHT22;6803;45.264;5.468;2023-02-03T02:43:05;1.70;99.90
13462;DHT22;6803;45.264;5.468;2023-02-03T02:45:43;2.00;99.90
13462;DHT22;6803;45.264;5.468;2023-02-03T02:48:19;1.80;99.90
13462;DHT22;6803;45.264;5.468;2023-02-03T02:50:50;1.80;99.90
13462;DHT22;6803;45.264;5.468;2023-02-03T02:53:24;1.80;99.90
13462;DHT22;6803;45.264;5.468;2023-02-03T02:55:57;2.00;99.90
13462;DHT22;6803;45.264;5.468;2023-02-03T02:58:30;2.00;99.90
13462;DHT22;6803;45.264;5.468;2023-02-03T03:01:20;2.10;99.90
13462;DHT22;6803;45.264;5.468;2023-02-03T03:03:51;2.10;99.90
13462;DHT22;6803;45.264;5.468;2023-02-03T03:06:23;1.90;99.90
13462;DHT22;6803;45.264;5.468;2023-02-03T03:08:57;1.90;99.90
13462;DHT22;6803;45.264;5.468;2023-02-03T03:11:32;2.10;99.90
13462;DHT22;6803;45.264;5.468;2023-02-03T03:14:04;2.00;99.90
13462;DHT22;6803;45.264;5.468;2023-02-03T03:16:37;1.80;99.90
13462;DHT22;6803;45.264;5.468;2023-02-03T03:19:11;1.60;99.90
13462;DHT22;6803;45.264;5.468;2023-02-03T03:21:44;1.40;99.90
13462;DHT22;6803;45.264;5.468;2023-02-03T03:24:18;1.20;99.90
13462;DHT22;6803;45.264;5.468;2023-02-03T03:26:52;1.50;99.90
13462;DHT22;6803;45.264;5.468;2023-02-03T03:29:27;1.40;99.90
13462;DHT22;6803;45.264;5.468;2023-02-03T03:31:58;1.20;99.90
13462;DHT22;6803;45.264;5.468;2023-02-03T03:34:29;1.10;99.90
13462;DHT22;6803;45.264;5.468;2023-02-03T03:37:05;1.00;99.90
13462;DHT22;6803;45.264;5.468;2023-02-03T03:39:41;1.10;99.90
13462;DHT22;6803;45.264;5.468;2023-02-03T03:42:13;1.00;99.90
13462;DHT22;6803;45.264;5.468;2023-02-03T03:44:49;1.00;99.90
13462;DHT22;6803;45.264;5.468;2023-02-03T03:47:22;1.10;99.90
13462;DHT22;6803;45.264;5.468;2023-02-03T03:49:54;1.30;99.90
13462;DHT22;6803;45.264;5.468;2023-02-03T03:52:28;1.60;99.90
13462;DHT22;6803;45.264;5.468;2023-02-03T03:55:00;1.80;99.90
13462;DHT22;6803;45.264;5.468;2023-02-03T03:57:35;1.80;99.90
13462;DHT22;6803;45.264;5.468;2023-02-03T04:00:10;1.80;99.90
13462;DHT22;6803;45.264;5.468;2023-02-03T04:02:43;1.40;99.90
13462;DHT22;6803;45.264;5.468;2023-02-03T04:05:16;1.20;99.90
13462;DHT22;6803;45.264;5.468;2023-02-03T04:07:47;0.90;99.90
13462;DHT22;6803;45.264;5.468;2023-02-03T04:10:23;1.30;99.90
13462;DHT22;6803;45.264;5.468;2023-02-03T04:12:54;1.70;99.90
13462;DHT22;6803;45.264;5.468;2023-02-03T04:15:25;1.70;99.90
13462;DHT22;6803;45.264;5.468;2023-02-03T04:17:56;1.80;99.90
13462;DHT22;6803;45.264;5.468;2023-02-03T04:20:29;1.90;99.90
13462;DHT22;6803;45.264;5.468;2023-02-03T04:23:00;1.60;99.90
13462;DHT22;6803;45.264;5.468;2023-02-03T04:25:31;1.50;99.90
13462;DHT22;6803;45.264;5.468;2023-02-03T04:28:01;1.50;99.90
13462;DHT22;6803;45.264;5.468;2023-02-03T04:30:32;1.20;99.90
13462;DHT22;6803;45.264;5.468;2023-02-03T04:33:03;1.30;99.90
13462;DHT22;6803;45.264;5.468;2023-02-03T04:35:33;1.10;99.90
13462;DHT22;6803;45.264;5.468;2023-02-03T04:38:04;1.20;99.90
13462;DHT22;6803;45.264;5.468;2023-02-03T04:40:35;1.50;99.90
13462;DHT22;6803;45.264;5.468;2023-02-03T04:43:08;1.40;99.90
13462;DHT22;6803;45.264;5.468;2023-02-03T04:45:39;1.00;99.90
13462;DHT22;6803;45.264;5.468;2023-02-03T04:48:09;0.80;99.90
13462;DHT22;6803;45.264;5.468;2023-02-03T04:50:40;0.50;99.90
13462;DHT22;6803;45.264;5.468;2023-02-03T04:53:10;0.50;99.90
13462;DHT22;6803;45.264;5.468;2023-02-03T04:55:46;0.70;99.90
13462;DHT22;6803;45.264;5.468;2023-02-03T04:58:16;0.90;99.90
13462;DHT22;6803;45.264;5.468;2023-02-03T05:00:47;0.80;99.90
13462;DHT22;6803;45.264;5.468;2023-02-03T05:03:18;0.60;99.90
13462;DHT22;6803;45.264;5.468;2023-02-03T05:05:49;0.50;99.90
13462;DHT22;6803;45.264;5.468;2023-02-03T05:08:19;0.40;99.90
13462;DHT22;6803;45.264;5.468;2023-02-03T05:10:50;0.30;99.90
13462;DHT22;6803;45.264;5.468;2023-02-03T05:13:20;0.40;99.90
13462;DHT22;6803;45.264;5.468;2023-02-03T05:15:51;0.40;99.90
13462;DHT22;6803;45.264;5.468;2023-02-03T05:18:22;0.30;99.90
13462;DHT22;6803;45.264;5.468;2023-02-03T05:20:52;0.30;99.90
13462;DHT22;6803;45.264;5.468;2023-02-03T05:23:23;0.40;99.90
13462;DHT22;6803;45.264;5.468;2023-02-03T05:25:53;0.80;99.90
13462;DHT22;6803;45.264;5.468;2023-02-03T05:28:24;0.70;99.90
13462;DHT22;6803;45.264;5.468;2023-02-03T05:30:56;0.80;99.90
13462;DHT22;6803;45.264;5.468;2023-02-03T05:33:26;0.90;99.90
13462;DHT22;6803;45.264;5.468;2023-02-03T05:35:57;1.00;99.90
13462;DHT22;6803;45.264;5.468;2023-02-03T05:38:28;1.00;99.90
13462;DHT22;6803;45.264;5.468;2023-02-03T05:40:58;0.90;99.90
13462;DHT22;6803;45.264;5.468;2023-02-03T05:43:46;0.60;99.90
13462;DHT22;6803;45.264;5.468;2023-02-03T05:46:17;0.40;99.90
13462;DHT22;6803;45.264;5.468;2023-02-03T05:48:47;0.20;99.90
13462;DHT22;6803;45.264;5.468;2023-02-03T05:51:18;0.20;99.90
13462;DHT22;6803;45.264;5.468;2023-02-03T05:53:48;0.30;99.90
13462;DHT22;6803;45.264;5.468;2023-02-03T05:56:19;0.20;99.90
13462;DHT22;6803;45.264;5.468;2023-02-03T05:58:49;0.00;99.90
13462;DHT22;6803;45.264;5.468;2023-02-03T06:01:21;0.00;99.90
13462;DHT22;6803;45.264;5.468;2023-02-03T06:03:52;0.00;99.90
13462;DHT22;6803;45.264;5.468;2023-02-03T06:06:23;-0.10;99.90
13462;DHT22;6803;45.264;5.468;2023-02-03T06:08:55;-0.20;99.90
13462;DHT22;6803;45.264;5.468;2023-02-03T06:11:25;-0.10;99.90
13462;DHT22;6803;45.264;5.468;2023-02-03T06:13:57;-0.20;99.90
13462;DHT22;6803;45.264;5.468;2023-02-03T06:16:28;0.10;99.90
13462;DHT22;6803;45.264;5.468;2023-02-03T06:18:58;0.10;99.90
13462;DHT22;6803;45.264;5.468;2023-02-03T06:21:30;0.30;99.90
13462;DHT22;6803;45.264;5.468;2023-02-03T06:24:00;0.50;99.90
13462;DHT22;6803;45.264;5.468;2023-02-03T06:26:32;0.50;99.90
13462;DHT22;6803;45.264;5.468;2023-02-03T06:29:02;0.20;99.90
13462;DHT22;6803;45.264;5.468;2023-02-03T06:31:33;0.00;99.90
13462;DHT22;6803;45.264;5.468;2023-02-03T06:34:04;0.10;99.90
13462;DHT22;6803;45.264;5.468;2023-02-03T06:36:34;0.30;99.90
13462;DHT22;6803;45.264;5.468;2023-02-03T06:39:05;0.30;99.90
13462;DHT22;6803;45.264;5.468;2023-02-03T06:41:35;0.10;99.90
13462;DHT22;6803;45.264;5.468;2023-02-03T06:44:06;0.00;99.90
13462;DHT22;6803;45.264;5.468;2023-02-03T06:46:38;-0.20;99.90
13462;DHT22;6803;45.264;5.468;2023-02-03T06:49:08;-0.20;99.90
13462;DHT22;6803;45.264;5.468;2023-02-03T06:51:39;-0.30;99.90
13462;DHT22;6803;45.264;5.468;2023-02-03T06:54:10;-0.20;99.90
13462;DHT22;6803;45.264;5.468;2023-02-03T06:56:41;-0.20;99.90
13462;DHT22;6803;45.264;5.468;2023-02-03T06:59:12;0.00;99.90
13462;DHT22;6803;45.264;5.468;2023-02-03T07:01:42;0.20;99.90
13462;DHT22;6803;45.264;5.468;2023-02-03T07:04:13;0.00;99.90
13462;DHT22;6803;45.264;5.468;2023-02-03T07:06:43;-0.10;99.90
13462;DHT22;6803;45.264;5.468;2023-02-03T07:09:14;-0.10;99.90
13462;DHT22;6803;45.264;5.468;2023-02-03T07:11:45;-0.30;99.90
13462;DHT22;6803;45.264;5.468;2023-02-03T07:14:16;0.20;99.90
13462;DHT22;6803;45.264;5.468;2023-02-03T07:16:50;0.60;99.90
13462;DHT22;6803;45.264;5.468;2023-02-03T07:19:24;0.70;99.90
13462;DHT22;6803;45.264;5.468;2023-02-03T07:21:55;0.80;99.90
13462;DHT22;6803;45.264;5.468;2023-02-03T07:24:26;0.80;99.90
13462;DHT22;6803;45.264;5.468;2023-02-03T07:26:57;0.90;99.90
13462;DHT22;6803;45.264;5.468;2023-02-03T07:29:27;1.00;99.90
13462;DHT22;6803;45.264;5.468;2023-02-03T07:31:59;1.00;99.90
13462;DHT22;6803;45.264;5.468;2023-02-03T07:34:32;1.10;99.90
13462;DHT22;6803;45.264;5.468;2023-02-03T07:37:03;1.00;99.90
13462;DHT22;6803;45.264;5.468;2023-02-03T07:39:33;1.10;99.90
13462;DHT22;6803;45.264;5.468;2023-02-03T07:42:04;1.30;99.90
13462;DHT22;6803;45.264;5.468;2023-02-03T07:44:35;1.20;99.90
13462;DHT22;6803;45.264;5.468;2023-02-03T07:47:05;1.20;99.90
13462;DHT22;6803;45.264;5.468;2023-02-03T07:49:36;1.20;99.90
13462;DHT22;6803;45.264;5.468;2023-02-03T07:52:07;1.10;99.90
13462;DHT22;6803;45.264;5.468;2023-02-03T07:54:37;1.10;99.90
13462;DHT22;6803;45.264;5.468;2023-02-03T07:57:08;1.30;99.90
13462;DHT22;6803;45.264;5.468;2023-02-03T07:59:39;1.40;99.90
13462;DHT22;6803;45.264;5.468;2023-02-03T08:02:10;1.50;99.90
13462;DHT22;6803;45.264;5.468;2023-02-03T08:04:40;1.50;99.90
13462;DHT22;6803;45.264;5.468;2023-02-03T08:07:11;1.50;99.90
13462;DHT22;6803;45.264;5.468;2023-02-03T08:12:21;1.50;99.90
13462;DHT22;6803;45.264;5.468;2023-02-03T08:14:52;1.70;99.90
13462;DHT22;6803;45.264;5.468;2023-02-03T08:17:22;1.80;99.90
13462;DHT22;6803;45.264;5.468;2023-02-03T08:19:53;1.90;99.90
13462;DHT22;6803;45.264;5.468;2023-02-03T08:22:23;2.00;99.90
13462;DHT22;6803;45.264;5.468;2023-02-03T08:24:56;2.20;99.90
13462;DHT22;6803;45.264;5.468;2023-02-03T08:27:27;2.40;99.90
13462;DHT22;6803;45.264;5.468;2023-02-03T08:29:57;2.40;99.90
13462;DHT22;6803;45.264;5.468;2023-02-03T08:32:28;2.40;99.90
13462;DHT22;6803;45.264;5.468;2023-02-03T08:34:59;2.40;99.90
13462;DHT22;6803;45.264;5.468;2023-02-03T08:37:30;2.40;99.90
13462;DHT22;6803;45.264;5.468;2023-02-03T08:40:00;2.50;99.90
13462;DHT22;6803;45.264;5.468;2023-02-03T08:42:31;2.50;99.90
13462;DHT22;6803;45.264;5.468;2023-02-03T08:45:02;2.70;99.90
13462;DHT22;6803;45.264;5.468;2023-02-03T08:47:33;2.70;99.90
13462;DHT22;6803;45.264;5.468;2023-02-03T08:50:07;2.70;99.90
13462;DHT22;6803;45.264;5.468;2023-02-03T08:52:38;2.70;99.90
13462;DHT22;6803;45.264;5.468;2023-02-03T08:55:09;2.90;99.90
13462;DHT22;6803;45.264;5.468;2023-02-03T08:57:40;3.00;99.90
13462;DHT22;6803;45.264;5.468;2023-02-03T09:00:14;3.20;99.90
13462;DHT22;6803;45.264;5.468;2023-02-03T09:02:45;3.30;99.90
13462;DHT22;6803;45.264;5.468;2023-02-03T09:05:16;3.40;99.90
13462;DHT22;6803;45.264;5.468;2023-02-03T09:07:47;3.50;99.90
13462;DHT22;6803;45.264;5.468;2023-02-03T09:10:17;3.70;99.90
13462;DHT22;6803;45.264;5.468;2023-02-03T09:12:48;3.70;99.90
13462;DHT22;6803;45.264;5.468;2023-02-03T09:15:19;3.70;99.90
13462;DHT22;6803;45.264;5.468;2023-02-03T09:17:50;3.80;99.90
13462;DHT22;6803;45.264;5.468;2023-02-03T09:20:21;4.10;99.90
13462;DHT22;6803;45.264;5.468;2023-02-03T09:22:55;4.10;99.90
13462;DHT22;6803;45.264;5.468;2023-02-03T09:25:27;4.20;99.90
13462;DHT22;6803;45.264;5.468;2023-02-03T09:27:58;4.20;99.90
13462;DHT22;6803;45.264;5.468;2023-02-03T09:30:30;4.40;99.90
13462;DHT22;6803;45.264;5.468;2023-02-03T09:33:01;4.30;99.90
13462;DHT22;6803;45.264;5.468;2023-02-03T09:35:32;4.30;99.90
13462;DHT22;6803;45.264;5.468;2023-02-03T09:38:02;4.40;99.90
13462;DHT22;6803;45.264;5.468;2023-02-03T09:40:35;4.20;99.90
13462;DHT22;6803;45.264;5.468;2023-02-03T09:43:12;4.30;99.90
13462;DHT22;6803;45.264;5.468;2023-02-03T09:45:44;4.30;99.90
13462;DHT22;6803;45.264;5.468;2023-02-03T09:48:17;4.20;99.90
13462;DHT22;6803;45.264;5.468;2023-02-03T09:50:49;4.30;99.90
13462;DHT22;6803;45.264;5.468;2023-02-03T09:53:26;4.50;99.90
13462;DHT22;6803;45.264;5.468;2023-02-03T09:55:58;4.70;99.90
13462;DHT22;6803;45.264;5.468;2023-02-03T09:58:32;4.80;99.90
13462;DHT22;6803;45.264;5.468;2023-02-03T10:01:05;4.90;99.90
13462;DHT22;6803;45.264;5.468;2023-02-03T10:03:41;5.10;99.90
13462;DHT22;6803;45.264;5.468;2023-02-03T10:06:21;5.20;99.90
13462;DHT22;6803;45.264;5.468;2023-02-03T10:09:04;5.20;99.90
13462;DHT22;6803;45.264;5.468;2023-02-03T10:11:40;5.40;99.90
13462;DHT22;6803;45.264;5.468;2023-02-03T10:14:19;5.30;99.90
13462;DHT22;6803;45.264;5.468;2023-02-03T10:16:57;5.40;99.90
13462;DHT22;6803;45.264;5.468;2023-02-03T10:19:32;5.50;99.90
13462;DHT22;6803;45.264;5.468;2023-02-03T10:22:04;5.30;99.90
13462;DHT22;6803;45.264;5.468;2023-02-03T10:24:39;5.20;99.90
13462;DHT22;6803;45.264;5.468;2023-02-03T10:27:14;5.50;99.90
13462;DHT22;6803;45.264;5.468;2023-02-03T10:29:47;5.80;99.90
13462;DHT22;6803;45.264;5.468;2023-02-03T10:32:19;5.90;99.90
13462;DHT22;6803;45.264;5.468;2023-02-03T10:34:50;5.90;99.90
13462;DHT22;6803;45.264;5.468;2023-02-03T10:37:25;5.90;99.90
13462;DHT22;6803;45.264;5.468;2023-02-03T10:39:59;5.80;99.90
13462;DHT22;6803;45.264;5.468;2023-02-03T10:42:33;6.00;99.90
13462;DHT22;6803;45.264;5.468;2023-02-03T10:45:22;6.30;99.90
13462;DHT22;6803;45.264;5.468;2023-02-03T10:47:55;6.20;99.90
13462;DHT22;6803;45.264;5.468;2023-02-03T10:50:27;6.20;99.90
13462;DHT22;6803;45.264;5.468;2023-02-03T10:53:24;6.40;99.90
13462;DHT22;6803;45.264;5.468;2023-02-03T10:56:03;6.40;99.90
13462;DHT22;6803;45.264;5.468;2023-02-03T10:58:36;6.60;99.90
13462;DHT22;6803;45.264;5.468;2023-02-03T11:01:09;6.70;99.90
13462;DHT22;6803;45.264;5.468;2023-02-03T11:03:43;6.80;99.90
13462;DHT22;6803;45.264;5.468;2023-02-03T11:06:15;7.10;99.90
13462;DHT22;6803;45.264;5.468;2023-02-03T11:08:48;7.20;99.90
13462;DHT22;6803;45.264;5.468;2023-02-03T11:11:23;7.20;99.90
13462;DHT22;6803;45.264;5.468;2023-02-03T11:14:10;7.30;99.90
13462;DHT22;6803;45.264;5.468;2023-02-03T11:16:42;7.60;99.90
13462;DHT22;6803;45.264;5.468;2023-02-03T11:19:18;7.50;99.90
13462;DHT22;6803;45.264;5.468;2023-02-03T11:21:51;7.30;99.90
13462;DHT22;6803;45.264;5.468;2023-02-03T11:24:26;7.60;99.90
13462;DHT22;6803;45.264;5.468;2023-02-03T11:27:00;7.60;99.90
13462;DHT22;6803;45.264;5.468;2023-02-03T11:29:34;7.60;99.90
13462;DHT22;6803;45.264;5.468;2023-02-03T11:32:13;7.50;99.90
13462;DHT22;6803;45.264;5.468;2023-02-03T11:34:50;7.70;99.90
13462;DHT22;6803;45.264;5.468;2023-02-03T11:37:28;7.80;99.90
13462;DHT22;6803;45.264;5.468;2023-02-03T11:40:33;8.20;99.90
13462;DHT22;6803;45.264;5.468;2023-02-03T11:43:13;8.20;99.90
13462;DHT22;6803;45.264;5.468;2023-02-03T11:45:45;8.40;99.90
13462;DHT22;6803;45.264;5.468;2023-02-03T11:48:25;8.60;99.90
13462;DHT22;6803;45.264;5.468;2023-02-03T11:51:01;9.30;99.90
13462;DHT22;6803;45.264;5.468;2023-02-03T11:53:42;9.30;99.90
13462;DHT22;6803;45.264;5.468;2023-02-03T11:56:25;9.10;99.90
13462;DHT22;6803;45.264;5.468;2023-02-03T11:59:19;9.30;99.90
13462;DHT22;6803;45.264;5.468;2023-02-03T12:08:03;9.20;99.90
13462;DHT22;6803;45.264;5.468;2023-02-03T12:10:40;9.30;99.90
13462;DHT22;6803;45.264;5.468;2023-02-03T12:13:21;9.70;99.90
13462;DHT22;6803;45.264;5.468;2023-02-03T12:16:00;9.70;99.90
13462;DHT22;6803;45.264;5.468;2023-02-03T12:18:38;9.50;99.90
13462;DHT22;6803;45.264;5.468;2023-02-03T12:21:22;9.40;99.90
13462;DHT22;6803;45.264;5.468;2023-02-03T12:23:55;9.80;99.90
13462;DHT22;6803;45.264;5.468;2023-02-03T12:26:28;9.70;99.90
13462;DHT22;6803;45.264;5.468;2023-02-03T12:29:03;9.40;99.90
13462;DHT22;6803;45.264;5.468;2023-02-03T12:31:36;10.00;99.90
13462;DHT22;6803;45.264;5.468;2023-02-03T12:34:14;10.50;99.90
13462;DHT22;6803;45.264;5.468;2023-02-03T12:36:47;10.30;99.90
13462;DHT22;6803;45.264;5.468;2023-02-03T12:39:24;10.70;99.90
13462;DHT22;6803;45.264;5.468;2023-02-03T12:41:58;10.80;99.90
13462;DHT22;6803;45.264;5.468;2023-02-03T12:44:33;10.50;99.90
13462;DHT22;6803;45.264;5.468;2023-02-03T12:47:06;10.50;99.90
13462;DHT22;6803;45.264;5.468;2023-02-03T12:49:41;10.20;99.90
13462;DHT22;6803;45.264;5.468;2023-02-03T12:52:17;10.40;99.90
13462;DHT22;6803;45.264;5.468;2023-02-03T12:54:53;10.10;99.90
13462;DHT22;6803;45.264;5.468;2023-02-03T12:57:27;10.40;99.90
13462;DHT22;6803;45.264;5.468;2023-02-03T13:00:09;10.30;99.90
13462;DHT22;6803;45.264;5.468;2023-02-03T13:02:46;10.10;99.90
13462;DHT22;6803;45.264;5.468;2023-02-03T13:05:21;10.20;99.90
13462;DHT22;6803;45.264;5.468;2023-02-03T13:07:56;10.10;99.90
13462;DHT22;6803;45.264;5.468;2023-02-03T13:10:30;10.10;99.90
13462;DHT22;6803;45.264;5.468;2023-02-03T13:13:03;10.10;99.90
13462;DHT22;6803;45.264;5.468;2023-02-03T13:15:41;10.00;99.90
13462;DHT22;6803;45.264;5.468;2023-02-03T13:18:17;9.90;99.90
13462;DHT22;6803;45.264;5.468;2023-02-03T13:20:46;9.60;99.90
13462;DHT22;6803;45.264;5.468;2023-02-03T13:23:17;9.60;99.90
13462;DHT22;6803;45.264;5.468;2023-02-03T13:26:06;9.60;99.90
13462;DHT22;6803;45.264;5.468;2023-02-03T13:28:50;9.40;99.90
13462;DHT22;6803;45.264;5.468;2023-02-03T13:31:30;9.30;99.90
13462;DHT22;6803;45.264;5.468;2023-02-03T13:40:34;9.20;99.90
13462;DHT22;6803;45.264;5.468;2023-02-03T13:43:10;9.10;99.90
13462;DHT22;6803;45.264;5.468;2023-02-03T13:45:44;9.20;99.90
13462;DHT22;6803;45.264;5.468;2023-02-03T13:48:17;9.20;99.90
13462;DHT22;6803;45.264;5.468;2023-02-03T13:51:01;9.20;99.90
13462;DHT22;6803;45.264;5.468;2023-02-03T13:53:25;9.30;99.90
13462;DHT22;6803;45.264;5.468;2023-02-03T13:55:58;9.30;99.90
13462;DHT22;6803;45.264;5.468;2023-02-03T13:58:31;9.20;99.90
13462;DHT22;6803;45.264;5.468;2023-02-03T14:03:58;9.10;99.90
13462;DHT22;6803;45.264;5.468;2023-02-03T14:07:04;9.00;99.90
13462;DHT22;6803;45.264;5.468;2023-02-03T14:09:40;9.20;99.90
13462;DHT22;6803;45.264;5.468;2023-02-03T14:15:26;9.30;99.90
13462;DHT22;6803;45.264;5.468;2023-02-03T14:18:05;9.30;99.90
13462;DHT22;6803;45.264;5.468;2023-02-03T14:20:44;9.10;99.90
13462;DHT22;6803;45.264;5.468;2023-02-03T14:23:20;9.00;99.90
13462;DHT22;6803;45.264;5.468;2023-02-03T14:25:54;9.00;99.90
13462;DHT22;6803;45.264;5.468;2023-02-03T14:28:30;9.10;99.90
13462;DHT22;6803;45.264;5.468;2023-02-03T14:31:13;9.10;99.90
13462;DHT22;6803;45.264;5.468;2023-02-03T14:34:07;9.20;99.90
13462;DHT22;6803;45.264;5.468;2023-02-03T14:36:50;9.10;99.90
13462;DHT22;6803;45.264;5.468;2023-02-03T14:49:29;9.00;99.90
13462;DHT22;6803;45.264;5.468;2023-02-03T14:55:12;9.00;99.90
13462;DHT22;6803;45.264;5.468;2023-02-03T14:57:45;8.90;99.90
13462;DHT22;6803;45.264;5.468;2023-02-03T15:00:35;8.90;99.90
13462;DHT22;6803;45.264;5.468;2023-02-03T15:03:18;8.90;99.90
13462;DHT22;6803;45.264;5.468;2023-02-03T15:05:53;8.90;99.90
13462;DHT22;6803;45.264;5.468;2023-02-03T15:08:39;8.90;99.90
13462;DHT22;6803;45.264;5.468;2023-02-03T15:11:28;8.80;99.90
13462;DHT22;6803;45.264;5.468;2023-02-03T15:14:22;8.90;99.90
13462;DHT22;6803;45.264;5.468;2023-02-03T15:16:58;8.90;99.90
13462;DHT22;6803;45.264;5.468;2023-02-03T15:19:32;8.90;99.90
13462;DHT22;6803;45.264;5.468;2023-02-03T15:22:18;8.90;99.90
13462;DHT22;6803;45.264;5.468;2023-02-03T15:24:51;8.90;99.90
13462;DHT22;6803;45.264;5.468;2023-02-03T15:27:24;8.80;99.90
13462;DHT22;6803;45.264;5.468;2023-02-03T15:29:56;8.70;99.90
13462;DHT22;6803;45.264;5.468;2023-02-03T15:32:29;8.70;99.90
13462;DHT22;6803;45.264;5.468;2023-02-03T15:35:03;8.60;99.90
13462;DHT22;6803;45.264;5.468;2023-02-03T15:37:36;8.60;99.90
13462;DHT22;6803;45.264;5.468;2023-02-03T15:40:12;8.40;99.90
13462;DHT22;6803;45.264;5.468;2023-02-03T15:42:48;8.30;99.90
13462;DHT22;6803;45.264;5.468;2023-02-03T15:45:21;8.30;99.90
13462;DHT22;6803;45.264;5.468;2023-02-03T15:47:53;8.20;99.90
13462;DHT22;6803;45.264;5.468;2023-02-03T15:50:30;8.20;99.90
13462;DHT22;6803;45.264;5.468;2023-02-03T15:53:06;8.20;99.90
13462;DHT22;6803;45.264;5.468;2023-02-03T15:55:40;8.10;99.90
13462;DHT22;6803;45.264;5.468;2023-02-03T15:58:16;8.10;99.90
13462;DHT22;6803;45.264;5.468;2023-02-03T16:00:49;8.00;99.90
13462;DHT22;6803;45.264;5.468;2023-02-03T16:03:23;8.10;99.90
13462;DHT22;6803;45.264;5.468;2023-02-03T16:05:54;8.00;99.90
13462;DHT22;6803;45.264;5.468;2023-02-03T16:08:37;7.90;99.90
13462;DHT22;6803;45.264;5.468;2023-02-03T16:11:31;7.80;99.90
13462;DHT22;6803;45.264;5.468;2023-02-03T16:14:03;7.80;99.90
13462;DHT22;6803;45.264;5.468;2023-02-03T16:16:38;7.80;99.90
13462;DHT22;6803;45.264;5.468;2023-02-03T16:19:14;7.60;99.90
13462;DHT22;6803;45.264;5.468;2023-02-03T16:21:54;7.70;99.90
13462;DHT22;6803;45.264;5.468;2023-02-03T16:24:37;7.60;99.90
13462;DHT22;6803;45.264;5.468;2023-02-03T16:30:23;7.10;99.90
13462;DHT22;6803;45.264;5.468;2023-02-03T16:33:15;6.80;99.90
13462;DHT22;6803;45.264;5.468;2023-02-03T16:36:10;6.80;99.90
13462;DHT22;6803;45.264;5.468;2023-02-03T16:39:00;6.90;99.90
13462;DHT22;6803;45.264;5.468;2023-02-03T16:41:54;6.90;99.90
13462;DHT22;6803;45.264;5.468;2023-02-03T16:44:39;6.70;99.90
13462;DHT22;6803;45.264;5.468;2023-02-03T16:47:29;6.60;99.90
13462;DHT22;6803;45.264;5.468;2023-02-03T16:50:20;6.80;99.90
13462;DHT22;6803;45.264;5.468;2023-02-03T16:53:12;6.60;99.90
13462;DHT22;6803;45.264;5.468;2023-02-03T16:55:44;6.40;99.90
13462;DHT22;6803;45.264;5.468;2023-02-03T16:58:15;6.60;99.90
13462;DHT22;6803;45.264;5.468;2023-02-03T17:00:49;6.40;99.90
13462;DHT22;6803;45.264;5.468;2023-02-03T17:03:23;6.70;99.90
13462;DHT22;6803;45.264;5.468;2023-02-03T17:05:55;6.50;99.90
13462;DHT22;6803;45.264;5.468;2023-02-03T17:08:27;6.50;99.90
13462;DHT22;6803;45.264;5.468;2023-02-03T17:11:04;6.40;99.90
13462;DHT22;6803;45.264;5.468;2023-02-03T17:13:36;6.30;99.90
13462;DHT22;6803;45.264;5.468;2023-02-03T17:16:12;6.30;99.90
13462;DHT22;6803;45.264;5.468;2023-02-03T17:18:45;6.10;99.90
13462;DHT22;6803;45.264;5.468;2023-02-03T17:21:18;6.00;99.90
13462;DHT22;6803;45.264;5.468;2023-02-03T17:23:50;6.00;99.90
13462;DHT22;6803;45.264;5.468;2023-02-03T17:26:22;5.80;99.90